SEU7104 HESH-EETN
Flight info
| Callsign | SEU7104 |
|---|---|
| Flight time | N/A |
| Altitude | 36000 |
| Route | KUPTI1L KUPTI L677 CVO L617 NOZ L551 ANTAR DCT RIGRO DCT ATFIR DCT OVDOT DCT VERIG DCT KELEL DCT LOGDA DCT BOKSU DCT GUNTA DCT SOKVA DCT KEMET |
| Aircraft | B738/M-SDE2E3FGHIRWXY/LB1 |
Departure
| Time | N/A |
|---|---|
| Airport | Sharm El Sheikh International Airport (HESH) |
Arrival
| Time | 2026-05-05 19:04 |
|---|---|
| Airport | Lennart Meri Tallinn Airport (EETN) |
| Time | Latitude | Longitude | Altitude | Speed | Heading |
|---|---|---|---|---|---|
| 2026-05-05 18:33 | 58.81796 | 24.90604 | 34839 ft | 492 kts | 117° |
| 2026-05-05 18:33 | 58.80185 | 24.96305 | 34841 ft | 479 kts | 134° |
| 2026-05-05 18:33 | 58.77890 | 25.00843 | 34843 ft | 465 kts | 150° |
| 2026-05-05 18:33 | 58.75149 | 25.03948 | 34833 ft | 449 kts | 167° |
| 2026-05-05 18:34 | 58.72175 | 25.05102 | 34835 ft | 427 kts | 188° |
| 2026-05-05 18:34 | 58.69330 | 25.04370 | 34834 ft | 412 kts | 203° |
| 2026-05-05 18:34 | 58.66743 | 25.02203 | 34841 ft | 401 kts | 217° |
| 2026-05-05 18:34 | 58.64599 | 24.98882 | 34839 ft | 393 kts | 231° |
| 2026-05-05 18:35 | 58.63003 | 24.94687 | 34837 ft | 388 kts | 244° |
| 2026-05-05 18:35 | 58.61941 | 24.89941 | 34852 ft | 387 kts | 246° |
| 2026-05-05 18:35 | 58.60471 | 24.85620 | 34668 ft | 390 kts | 230° |
| 2026-05-05 18:35 | 58.58450 | 24.82132 | 34177 ft | 391 kts | 222° |
| 2026-05-05 18:36 | 58.56273 | 24.79014 | 33578 ft | 392 kts | 220° |
| 2026-05-05 18:36 | 58.54048 | 24.75986 | 32968 ft | 391 kts | 220° |
| 2026-05-05 18:36 | 58.51828 | 24.73013 | 32492 ft | 387 kts | 220° |
| 2026-05-05 18:36 | 58.49633 | 24.70094 | 32105 ft | 382 kts | 220° |
| 2026-05-05 18:37 | 58.47462 | 24.67223 | 31619 ft | 378 kts | 219° |
| 2026-05-05 18:37 | 58.45299 | 24.64370 | 31082 ft | 377 kts | 219° |
| 2026-05-05 18:37 | 58.43138 | 24.61525 | 30555 ft | 375 kts | 219° |
| 2026-05-05 18:37 | 58.41016 | 24.58736 | 30044 ft | 374 kts | 219° |
| 2026-05-05 18:38 | 58.38885 | 24.55938 | 29470 ft | 372 kts | 219° |
| 2026-05-05 18:38 | 58.36760 | 24.53155 | 28870 ft | 369 kts | 219° |
| 2026-05-05 18:38 | 58.34651 | 24.50398 | 28282 ft | 367 kts | 219° |
| 2026-05-05 18:38 | 58.32553 | 24.47666 | 27710 ft | 364 kts | 219° |
| 2026-05-05 18:39 | 58.30521 | 24.44835 | 27131 ft | 357 kts | 228° |
| 2026-05-05 18:39 | 58.29078 | 24.41099 | 26579 ft | 349 kts | 246° |
| 2026-05-05 18:39 | 58.28478 | 24.36669 | 26044 ft | 348 kts | 265° |
| 2026-05-05 18:39 | 58.28697 | 24.32075 | 25544 ft | 351 kts | 276° |
| 2026-05-05 18:40 | 58.29227 | 24.27557 | 25031 ft | 350 kts | 278° |
| 2026-05-05 18:40 | 58.29823 | 24.23073 | 24523 ft | 349 kts | 279° |
| 2026-05-05 18:40 | 58.30434 | 24.18622 | 24030 ft | 347 kts | 279° |
| 2026-05-05 18:40 | 58.31071 | 24.14206 | 23553 ft | 347 kts | 284° |
| 2026-05-05 18:41 | 58.32378 | 24.10297 | 23305 ft | 361 kts | 307° |
| 2026-05-05 18:41 | 58.34448 | 24.07283 | 22988 ft | 392 kts | 319° |
| 2026-05-05 18:41 | 58.36991 | 24.04814 | 22448 ft | 429 kts | 329° |
| 2026-05-05 18:41 | 58.39982 | 24.03215 | 21805 ft | 460 kts | 344° |
| 2026-05-05 18:42 | 58.43205 | 24.03209 | 21260 ft | 470 kts | 1° |
| 2026-05-05 18:42 | 58.46286 | 24.04968 | 21121 ft | 468 kts | 18° |
| 2026-05-05 18:42 | 58.49025 | 24.08258 | 20989 ft | 464 kts | 37° |
| 2026-05-05 18:42 | 58.51258 | 24.12609 | 20913 ft | 452 kts | 44° |
| 2026-05-05 18:43 | 58.53299 | 24.17089 | 20814 ft | 440 kts | 46° |
| 2026-05-05 18:43 | 58.55260 | 24.21521 | 20512 ft | 433 kts | 46° |
| 2026-05-05 18:43 | 58.57209 | 24.25897 | 20059 ft | 431 kts | 45° |
| 2026-05-05 18:43 | 58.59168 | 24.30226 | 19583 ft | 429 kts | 45° |
| 2026-05-05 18:44 | 58.61139 | 24.34530 | 19173 ft | 426 kts | 45° |
| 2026-05-05 18:44 | 58.63096 | 24.38780 | 18770 ft | 423 kts | 44° |
| 2026-05-05 18:44 | 58.65041 | 24.42994 | 18368 ft | 420 kts | 44° |
| 2026-05-05 18:44 | 58.66946 | 24.47127 | 17953 ft | 417 kts | 44° |
| 2026-05-05 18:45 | 58.68865 | 24.51301 | 17518 ft | 414 kts | 45° |
| 2026-05-05 18:45 | 58.70761 | 24.55440 | 17096 ft | 411 kts | 45° |
| 2026-05-05 18:45 | 58.72756 | 24.59292 | 16654 ft | 402 kts | 31° |
| 2026-05-05 18:45 | 58.75115 | 24.61997 | 16256 ft | 391 kts | 22° |
| 2026-05-05 18:46 | 58.77509 | 24.64451 | 15846 ft | 388 kts | 21° |
| 2026-05-05 18:46 | 58.79892 | 24.66883 | 15414 ft | 386 kts | 21° |
| 2026-05-05 18:46 | 58.82257 | 24.69324 | 15012 ft | 384 kts | 22° |
| 2026-05-05 18:46 | 58.84601 | 24.71774 | 14609 ft | 382 kts | 22° |
| 2026-05-05 18:47 | 58.86899 | 24.74205 | 14501 ft | 369 kts | 22° |
| 2026-05-05 18:47 | 58.89098 | 24.76551 | 14256 ft | 354 kts | 22° |
| 2026-05-05 18:47 | 58.91251 | 24.78842 | 13735 ft | 352 kts | 22° |
| 2026-05-05 18:47 | 58.93387 | 24.81113 | 13182 ft | 348 kts | 22° |
| 2026-05-05 18:48 | 58.95490 | 24.83357 | 12771 ft | 341 kts | 22° |
| 2026-05-05 18:48 | 58.97546 | 24.85560 | 12366 ft | 334 kts | 22° |
| 2026-05-05 18:48 | 58.99561 | 24.87720 | 11974 ft | 327 kts | 22° |
| 2026-05-05 18:48 | 59.01538 | 24.89839 | 11580 ft | 321 kts | 21° |
| 2026-05-05 18:49 | 59.03582 | 24.91222 | 11186 ft | 304 kts | 3° |
| 2026-05-05 18:49 | 59.05644 | 24.91911 | 10832 ft | 299 kts | 0° |
| 2026-05-05 18:49 | 59.07700 | 24.92504 | 10459 ft | 298 kts | 0° |
| 2026-05-05 18:49 | 59.09716 | 24.93067 | 10107 ft | 296 kts | 0° |
| 2026-05-05 18:50 | 59.11761 | 24.93623 | 9874 ft | 297 kts | 0° |
| 2026-05-05 18:50 | 59.13837 | 24.94167 | 9864 ft | 302 kts | 360° |
| 2026-05-05 18:50 | 59.15911 | 24.94710 | 9843 ft | 299 kts | 360° |
| 2026-05-05 18:50 | 59.17960 | 24.95253 | 9835 ft | 295 kts | 360° |
| 2026-05-05 18:51 | 59.19993 | 24.95797 | 9846 ft | 295 kts | 360° |
| 2026-05-05 18:51 | 59.22033 | 24.96341 | 9851 ft | 296 kts | 360° |
| 2026-05-05 18:51 | 59.24062 | 24.96884 | 9759 ft | 293 kts | 0° |
| 2026-05-05 18:51 | 59.26071 | 24.97423 | 9507 ft | 290 kts | 0° |
| 2026-05-05 18:52 | 59.28072 | 24.97948 | 9195 ft | 289 kts | 0° |
| 2026-05-05 18:52 | 59.30058 | 24.98455 | 8927 ft | 286 kts | 0° |
| 2026-05-05 18:52 | 59.32025 | 24.98944 | 8672 ft | 283 kts | 0° |
| 2026-05-05 18:52 | 59.33947 | 24.99840 | 8392 ft | 290 kts | 21° |
| 2026-05-05 18:53 | 59.35544 | 25.02280 | 8120 ft | 296 kts | 49° |
| 2026-05-05 18:53 | 59.36457 | 25.05867 | 7868 ft | 296 kts | 77° |
| 2026-05-05 18:53 | 59.36601 | 25.09849 | 7620 ft | 292 kts | 93° |
| 2026-05-05 18:53 | 59.36516 | 25.13806 | 7350 ft | 289 kts | 94° |
| 2026-05-05 18:54 | 59.36398 | 25.17735 | 7085 ft | 288 kts | 95° |
| 2026-05-05 18:54 | 59.36269 | 25.21635 | 6841 ft | 285 kts | 95° |
| 2026-05-05 18:54 | 59.36130 | 25.25504 | 6601 ft | 282 kts | 95° |
| 2026-05-05 18:54 | 59.35983 | 25.29273 | 6367 ft | 280 kts | 95° |
| 2026-05-05 18:55 | 59.35826 | 25.33065 | 6096 ft | 279 kts | 95° |
| 2026-05-05 18:55 | 59.35662 | 25.36850 | 5821 ft | 277 kts | 95° |
| 2026-05-05 18:55 | 59.35658 | 25.40606 | 5513 ft | 276 kts | 76° |
| 2026-05-05 18:55 | 59.36453 | 25.43930 | 5293 ft | 265 kts | 45° |
| 2026-05-05 18:56 | 59.37874 | 25.45977 | 5163 ft | 248 kts | 16° |
| 2026-05-05 18:56 | 59.39527 | 25.46366 | 4881 ft | 237 kts | 346° |
| 2026-05-05 18:56 | 59.40993 | 25.45067 | 4495 ft | 232 kts | 315° |
| 2026-05-05 18:56 | 59.41959 | 25.42563 | 4114 ft | 231 kts | 292° |
| 2026-05-05 18:57 | 59.42117 | 25.39454 | 3715 ft | 235 kts | 261° |
| 2026-05-05 18:57 | 59.41762 | 25.36340 | 3482 ft | 231 kts | 262° |
| 2026-05-05 18:57 | 59.41527 | 25.33245 | 3290 ft | 226 kts | 264° |
| 2026-05-05 18:57 | 59.41364 | 25.30211 | 3099 ft | 221 kts | 268° |
| 2026-05-05 18:58 | 59.41316 | 25.28225 | 2972 ft | 218 kts | 270° |
| 2026-05-05 18:58 | 59.41293 | 25.25319 | 2769 ft | 208 kts | 271° |
| 2026-05-05 18:58 | 59.41289 | 25.22539 | 2567 ft | 199 kts | 271° |
| 2026-05-05 18:58 | 59.41287 | 25.19042 | 2311 ft | 187 kts | 272° |
| 2026-05-05 18:59 | 59.41287 | 25.16574 | 2187 ft | 173 kts | 271° |
| 2026-05-05 18:59 | 59.41286 | 25.15016 | 2182 ft | 167 kts | 271° |
| 2026-05-05 18:59 | 59.41287 | 25.12723 | 2199 ft | 169 kts | 271° |
| 2026-05-05 18:59 | 59.41287 | 25.10436 | 2215 ft | 166 kts | 272° |
| 2026-05-05 19:00 | 59.41288 | 25.08213 | 2202 ft | 165 kts | 272° |
| 2026-05-05 19:00 | 59.41290 | 25.05944 | 2140 ft | 168 kts | 272° |
| 2026-05-05 19:00 | 59.41292 | 25.03666 | 1943 ft | 164 kts | 272° |
| 2026-05-05 19:00 | 59.41293 | 25.01475 | 1719 ft | 157 kts | 272° |
| 2026-05-05 19:01 | 59.41295 | 24.99362 | 1492 ft | 151 kts | 272° |
| 2026-05-05 19:01 | 59.41298 | 24.97371 | 1284 ft | 139 kts | 272° |
| 2026-05-05 19:01 | 59.41300 | 24.95489 | 1119 ft | 138 kts | 272° |
| 2026-05-05 19:01 | 59.41305 | 24.93626 | 885 ft | 136 kts | 270° |
| 2026-05-05 19:02 | 59.41307 | 24.91782 | 702 ft | 135 kts | 270° |
| 2026-05-05 19:02 | 59.41310 | 24.89948 | 511 ft | 135 kts | 270° |
| 2026-05-05 19:02 | 59.41315 | 24.88103 | 330 ft | 135 kts | 269° |
| 2026-05-05 19:02 | 59.41317 | 24.86299 | 162 ft | 132 kts | 270° |
| 2026-05-05 19:03 | 59.41320 | 24.84768 | 161 ft | 86 kts | 271° |
| 2026-05-05 19:03 | 59.41326 | 24.83629 | 163 ft | 79 kts | 270° |
| 2026-05-05 19:03 | 59.41325 | 24.82632 | 158 ft | 68 kts | 271° |
| 2026-05-05 19:03 | 59.41331 | 24.81781 | 164 ft | 57 kts | 270° |
| 2026-05-05 19:04 | 59.41333 | 24.81048 | 159 ft | 51 kts | 270° |
| 2026-05-05 19:04 | 59.41364 | 24.80624 | 159 ft | 16 kts | 311° |
| 2026-05-05 19:04 | 59.41423 | 24.80504 | 161 ft | 0 kts | 314° |
| 2026-05-05 19:05 | 59.41423 | 24.80503 | 161 ft | 1 kts | 314° |
| 2026-05-05 19:06 | 59.41438 | 24.80480 | 161 ft | 5 kts | 321° |
| 2026-05-05 19:06 | 59.41471 | 24.80471 | 161 ft | 6 kts | 8° |
| 2026-05-05 19:06 | 59.41529 | 24.80507 | 161 ft | 11 kts | 10° |
| 2026-05-05 19:06 | 59.41554 | 24.80511 | 161 ft | 6 kts | 4° |
| 2026-05-05 19:07 | 59.41614 | 24.80512 | 161 ft | 12 kts | 359° |
| 2026-05-05 19:07 | 59.41668 | 24.80489 | 161 ft | 2 kts | 301° |
| 2026-05-05 19:07 | 59.41678 | 24.80427 | 161 ft | 7 kts | 286° |
| 2026-05-05 19:07 | 59.41690 | 24.80346 | 161 ft | 1 kts | 285° |
| 2026-05-05 19:08 | 59.41690 | 24.80345 | 161 ft | 0 kts | 285° |